Time;durP1;ratioP1;P1;durP2;ratioP2;P2;SDS_P1;SDS_P2;PMS_P1;PMS_P2;Temp;Humidity;BMP_temperature;BMP_pressure;BME280_temperature;BME280_humidity;BME280_pressure;Samples;Min_cycle;Max_cycle;Signal;HPM_P1;HPM_P2
2021/07/01 00:00:39;;;;;;;23.55;14.82;;;;;;;23.62;67.71;93543.03;5090268;28;20020;-70
2021/07/01 00:03:05;;;;;;;22.95;14.93;;;;;;;23.61;67.70;93538.75;5088825;28;20031;-70
2021/07/01 00:05:30;;;;;;;22.40;14.85;;;;;;;23.57;68.04;93538.81;5088533;28;20024;-70
2021/07/01 00:07:56;;;;;;;22.42;15.55;;;;;;;23.56;67.77;93541.94;5088938;28;20149;-71
2021/07/01 00:10:25;;;;;;;21.45;15.65;;;;;;;23.53;68.29;93540.81;5088539;28;20039;-70
2021/07/01 00:12:51;;;;;;;23.55;15.48;;;;;;;23.51;68.32;93534.19;5089765;28;20113;-71
2021/07/01 00:15:23;;;;;;;23.85;14.60;;;;;;;23.47;68.06;93544.34;5089878;28;20063;-70
2021/07/01 00:17:48;;;;;;;25.65;15.18;;;;;;;23.52;68.17;93547.41;5088138;28;20036;-71
2021/07/01 00:20:14;;;;;;;22.83;14.95;;;;;;;23.47;68.41;93547.06;5090188;28;20489;-70
2021/07/01 00:22:40;;;;;;;22.25;15.45;;;;;;;23.38;68.31;93545.59;5088078;28;20044;-70
2021/07/01 00:25:09;;;;;;;20.48;15.05;;;;;;;23.38;68.51;93553.75;5089597;28;20016;-70
2021/07/01 00:27:35;;;;;;;28.17;15.35;;;;;;;23.37;68.29;93554.16;5088261;28;20036;-70
2021/07/01 00:30:00;;;;;;;25.73;14.98;;;;;;;23.35;69.03;93545.63;5090092;28;20034;-71
2021/07/01 00:32:26;;;;;;;17.48;14.60;;;;;;;23.23;69.41;93553.09;5088916;28;20099;-71
2021/07/01 00:34:52;;;;;;;26.23;15.40;;;;;;;23.17;69.86;93562.84;5088298;28;20410;-71
2021/07/01 00:37:17;;;;;;;25.83;15.43;;;;;;;23.13;69.70;93551.25;5088417;28;20612;-71
2021/07/01 00:39:43;;;;;;;23.30;15.43;;;;;;;23.10;70.15;93553.97;5088752;28;20471;-71
2021/07/01 00:42:09;;;;;;;19.17;13.57;;;;;;;23.06;70.32;93558.66;5088555;28;20028;-71
2021/07/01 00:44:34;;;;;;;24.88;14.73;;;;;;;23.01;69.98;93548.97;5088607;28;20020;-71
2021/07/01 00:47:00;;;;;;;23.27;14.82;;;;;;;23.06;70.09;93550.50;5089612;28;20056;-71
2021/07/01 00:49:25;;;;;;;21.92;14.18;;;;;;;23.01;70.46;93543.53;5089920;28;20511;-71
2021/07/01 00:51:54;;;;;;;24.30;14.52;;;;;;;22.99;70.23;93541.22;5088235;28;20398;-71
2021/07/01 00:54:20;;;;;;;23.25;14.55;;;;;;;23.01;70.17;93538.91;5088165;28;20042;-71
2021/07/01 00:56:46;;;;;;;21.10;12.73;;;;;;;22.98;70.32;93542.41;5088199;28;20407;-71
2021/07/01 00:59:11;;;;;;;26.73;13.80;;;;;;;23.00;70.38;93540.06;5087716;28;20108;-71
2021/07/01 01:01:37;;;;;;;20.08;13.73;;;;;;;22.96;69.99;93550.19;5088191;28;20056;-71
2021/07/01 01:04:03;;;;;;;23.73;13.40;;;;;;;22.95;70.20;93545.91;5089190;28;20028;-71
2021/07/01 01:06:29;;;;;;;22.10;13.85;;;;;;;22.95;70.11;93543.19;5089072;28;20034;-71
2021/07/01 01:08:56;;;;;;;18.38;13.27;;;;;;;22.95;70.00;93551.34;5087835;28;20402;-71
2021/07/01 01:11:24;;;;;;;18.02;14.00;;;;;;;22.92;70.30;93551.34;5087690;28;20036;-71
2021/07/01 01:13:51;;;;;;;23.27;14.02;;;;;;;22.88;70.22;93559.56;5089051;28;20059;-71
2021/07/01 01:16:17;;;;;;;19.27;13.45;;;;;;;22.90;70.35;93559.13;5088967;28;20031;-71
2021/07/01 01:18:43;;;;;;;26.35;13.00;;;;;;;22.84;70.56;93558.81;5087904;28;20032;-71
2021/07/01 01:21:11;;;;;;;24.10;13.10;;;;;;;22.85;70.82;93560.34;5088008;28;20032;-71
2021/07/01 01:23:36;;;;;;;14.52;12.80;;;;;;;22.81;70.85;93563.06;5087525;28;20040;-71
2021/07/01 01:26:02;;;;;;;14.73;12.18;;;;;;;22.83;70.57;93558.00;5087793;28;20054;-71
2021/07/01 01:28:28;;;;;;;20.30;13.25;;;;;;;22.79;70.76;93557.25;5087686;28;20319;-71
2021/07/01 01:30:53;;;;;;;17.50;12.35;;;;;;;22.79;70.65;93551.06;5088102;28;20487;-70
2021/07/01 01:33:19;;;;;;;17.40;12.35;;;;;;;22.79;70.45;93551.81;5087477;28;20035;-71
2021/07/01 01:35:45;;;;;;;18.08;13.52;;;;;;;22.79;70.60;93562.69;5087559;28;20047;-71
2021/07/01 01:38:13;;;;;;;26.95;13.20;;;;;;;22.78;70.81;93555.72;5090192;28;20116;-71
2021/07/01 01:40:42;;;;;;;19.50;13.48;;;;;;;22.78;70.63;93554.97;5092550;28;20024;-71
2021/07/01 01:43:08;;;;;;;17.63;12.27;;;;;;;22.82;70.44;93561.16;5092820;28;20024;-71
2021/07/01 01:45:37;;;;;;;21.42;13.18;;;;;;;22.84;70.16;93566.97;5092597;28;20034;-70
2021/07/01 01:48:03;;;;;;;20.33;12.68;;;;;;;22.86;70.08;93566.53;5091099;28;20402;-70
2021/07/01 01:50:28;;;;;;;18.00;12.20;;;;;;;22.86;70.11;93563.81;5092584;28;20039;-70
2021/07/01 01:52:54;;;;;;;20.25;12.27;;;;;;;22.84;70.32;93558.81;5091272;28;20036;-70
2021/07/01 01:55:23;;;;;;;21.23;11.95;;;;;;;22.86;70.07;93571.97;5090945;28;20403;-70
2021/07/01 01:57:49;;;;;;;19.33;12.35;;;;;;;22.85;70.07;93568.50;5092522;28;20036;-70
2021/07/01 02:00:17;;;;;;;19.10;12.52;;;;;;;22.87;69.98;93568.88;5089909;28;20051;-70
2021/07/01 02:02:43;;;;;;;14.93;11.82;;;;;;;22.82;69.99;93577.44;5092458;28;20150;-70
2021/07/01 02:05:10;;;;;;;20.35;12.65;;;;;;;22.81;69.92;93573.16;5092507;28;20538;-70
2021/07/01 02:07:36;;;;;;;20.65;12.50;;;;;;;22.79;70.15;93568.13;5091061;28;20115;-70
2021/07/01 02:10:05;;;;;;;17.67;12.38;;;;;;;22.75;70.06;93564.66;5092055;28;20575;-70
2021/07/01 02:12:32;;;;;;;18.67;12.35;;;;;;;22.77;70.17;93573.19;5090663;28;20402;-71
2021/07/01 02:14:59;;;;;;;14.23;12.10;;;;;;;22.75;70.22;93564.66;5089387;28;20453;-70
2021/07/01 02:17:24;;;;;;;14.80;11.43;;;;;;;22.77;70.24;93569.69;5092275;28;20028;-70
2021/07/01 02:19:50;;;;;;;19.63;12.18;;;;;;;22.70;70.01;93569.75;5091858;28;20093;-70
2021/07/01 02:22:17;;;;;;;16.02;11.65;;;;;;;22.66;70.32;93575.22;5090836;28;20424;-71
2021/07/01 02:24:43;;;;;;;16.65;11.82;;;;;;;22.63;70.39;93565.13;5090474;28;20027;-70
2021/07/01 02:27:09;;;;;;;20.58;11.23;;;;;;;22.62;70.64;93577.16;5090644;28;20115;-70
2021/07/01 02:29:34;;;;;;;19.35;10.95;;;;;;;22.60;70.42;93574.84;5091906;28;20028;-70
2021/07/01 02:32:00;;;;;;;25.92;12.63;;;;;;;22.60;70.63;93587.66;5090221;28;20024;-70
2021/07/01 02:34:26;;;;;;;21.55;11.73;;;;;;;22.60;70.78;93591.13;5091272;28;20069;-70
2021/07/01 02:36:52;;;;;;;15.98;12.05;;;;;;;22.59;70.40;93584.19;5091296;28;20032;-70
2021/07/01 02:39:17;;;;;;;17.27;11.45;;;;;;;22.59;70.20;93596.97;5090344;28;20023;-71
2021/07/01 02:41:43;;;;;;;18.67;12.40;;;;;;;22.57;70.43;93589.22;5090365;28;20403;-71
2021/07/01 02:44:08;;;;;;;21.23;12.13;;;;;;;22.53;70.61;93587.69;5090291;28;20024;-71
2021/07/01 02:46:34;;;;;;;19.88;12.30;;;;;;;22.54;70.18;93598.16;5090570;28;20031;-70
2021/07/01 02:48:59;;;;;;;17.48;11.90;;;;;;;22.53;70.56;93593.91;5090474;28;20032;-70
2021/07/01 02:51:25;;;;;;;18.10;12.20;;;;;;;22.51;70.88;93596.25;5090562;28;20031;-70
2021/07/01 02:53:50;;;;;;;19.55;11.85;;;;;;;22.53;70.96;93598.53;5091631;28;20036;-70
2021/07/01 02:56:16;;;;;;;26.52;12.65;;;;;;;22.49;70.74;93606.72;5090436;28;20103;-70
2021/07/01 02:58:42;;;;;;;20.75;11.77;;;;;;;22.46;70.95;93606.75;5091774;28;20047;-70
2021/07/01 03:01:07;;;;;;;24.40;12.90;;;;;;;22.46;70.79;93610.22;5090831;28;20055;-71
2021/07/01 03:03:33;;;;;;;15.25;12.50;;;;;;;22.46;70.65;93614.88;5089871;28;20085;-71
2021/07/01 03:05:58;;;;;;;17.15;11.48;;;;;;;22.47;70.77;93616.41;5091231;28;20106;-70
2021/07/01 03:08:23;;;;;;;20.95;13.02;;;;;;;22.45;70.78;93624.97;5089468;28;20115;-70
2021/07/01 03:10:49;;;;;;;22.02;12.52;;;;;;;22.40;70.84;93623.44;5091100;28;20028;-70
2021/07/01 03:13:15;;;;;;;17.70;12.77;;;;;;;22.39;70.96;93632.75;5089502;28;20047;-70
2021/07/01 03:15:41;;;;;;;23.08;12.45;;;;;;;22.34;71.12;93635.84;5089761;28;20078;-70
2021/07/01 03:18:06;;;;;;;21.45;13.45;;;;;;;22.33;70.98;93642.47;5091012;28;20032;-70
2021/07/01 03:20:32;;;;;;;21.23;12.32;;;;;;;22.31;71.33;93631.22;5090702;28;20395;-70
2021/07/01 03:22:57;;;;;;;18.05;13.40;;;;;;;22.28;71.56;93642.09;5089549;28;20052;-70
2021/07/01 03:25:23;;;;;;;19.27;13.50;;;;;;;22.20;72.18;93636.63;5089429;28;20402;-70
2021/07/01 03:27:48;;;;;;;18.52;12.93;;;;;;;22.20;72.28;93641.31;5089454;28;20035;-70
2021/07/01 03:30:14;;;;;;;17.38;13.15;;;;;;;22.20;72.44;93642.06;5087822;28;20032;-70
2021/07/01 03:32:39;;;;;;;18.48;11.20;;;;;;;22.19;72.65;93647.91;5089334;28;20028;-70
2021/07/01 03:35:05;;;;;;;19.67;13.43;;;;;;;22.23;72.71;93645.97;5089296;28;20044;-70
2021/07/01 03:37:31;;;;;;;23.13;12.88;;;;;;;22.27;72.45;93654.09;5090391;28;20031;-70
2021/07/01 03:39:56;;;;;;;22.92;12.43;;;;;;;22.36;72.36;93657.19;5089711;28;20402;-70
2021/07/01 03:42:22;;;;;;;21.80;12.57;;;;;;;22.43;71.93;93651.75;5089147;28;20028;-70
2021/07/01 03:44:48;;;;;;;14.60;12.20;;;;;;;22.53;71.80;93658.28;5089037;28;20211;-70
2021/07/01 03:47:14;;;;;;;21.15;13.10;;;;;;;22.64;71.31;93659.03;5090512;28;20055;-70
2021/07/01 03:49:39;;;;;;;19.20;12.27;;;;;;;22.71;71.06;93663.66;5088783;28;20038;-70
2021/07/01 03:52:06;;;;;;;18.77;12.18;;;;;;;22.80;70.79;93656.63;5089155;28;20095;-71
2021/07/01 03:54:33;;;;;;;19.77;12.68;;;;;;;22.81;70.55;93658.16;5090227;28;20084;-70
2021/07/01 03:56:59;;;;;;;24.15;12.13;;;;;;;22.88;70.60;93654.66;5090033;28;20031;-70
2021/07/01 03:59:25;;;;;;;18.55;12.20;;;;;;;22.95;70.29;93654.59;5089818;28;20115;-70
2021/07/01 04:01:50;;;;;;;17.20;12.15;;;;;;;23.03;70.43;93648.00;5088577;28;20177;-70
2021/07/01 04:04:16;;;;;;;24.65;12.88;;;;;;;23.11;70.21;93642.53;5088894;28;20016;-70
2021/07/01 04:06:41;;;;;;;20.40;12.35;;;;;;;23.18;69.76;93632.38;5089917;28;20030;-70
2021/07/01 04:09:07;;;;;;;24.90;12.45;;;;;;;23.28;69.41;93636.16;5090195;28;20028;-71
2021/07/01 04:11:35;;;;;;;17.42;11.88;;;;;;;23.34;69.34;93637.28;5088889;28;20478;-70
2021/07/01 04:14:00;;;;;;;25.05;17.15;;;;;;;23.44;69.57;93631.00;5088905;28;20089;-70
2021/07/01 04:16:26;;;;;;;22.77;13.10;;;;;;;23.50;69.53;93625.16;5088848;28;20471;-71
2021/07/01 04:18:51;;;;;;;16.33;13.13;;;;;;;23.57;69.54;93635.97;5088334;28;20424;-70
2021/07/01 04:21:19;;;;;;;24.15;13.20;;;;;;;23.63;69.19;93632.44;5088538;28;20027;-71
2021/07/01 04:23:45;;;;;;;24.33;12.50;;;;;;;23.73;69.13;93630.78;5090179;28;20039;-70
2021/07/01 04:26:10;;;;;;;19.42;10.80;;;;;;;23.80;68.60;93627.25;5088752;28;20485;-71
2021/07/01 04:28:36;;;;;;;29.00;12.90;;;;;;;23.87;67.90;93619.00;5088475;28;20024;-70
2021/07/01 04:31:02;;;;;;;18.23;11.63;;;;;;;23.97;67.73;93615.41;5089813;28;20024;-71
2021/07/01 04:33:28;;;;;;;15.73;10.80;;;;;;;24.02;67.69;93612.25;5089539;28;20024;-70
2021/07/01 04:35:54;;;;;;;21.13;12.70;;;;;;;24.08;67.45;93618.03;5088465;28;20452;-70
2021/07/01 04:38:19;;;;;;;18.60;11.13;;;;;;;24.16;66.79;93618.72;5088413;28;20100;-70
2021/07/01 04:40:45;;;;;;;25.77;12.88;;;;;;;24.25;66.69;93619.03;5089551;28;20024;-70
2021/07/01 04:43:11;;;;;;;17.15;11.90;;;;;;;24.34;66.88;93619.31;5088136;28;20106;-70
2021/07/01 04:45:37;;;;;;;18.15;11.10;;;;;;;24.46;66.31;93626.16;5089440;28;20107;-71
2021/07/01 04:48:06;;;;;;;24.38;11.65;;;;;;;24.58;66.04;93620.19;5088214;28;20036;-71
2021/07/01 04:50:32;;;;;;;17.63;11.27;;;;;;;24.69;65.39;93619.28;5088239;28;20058;-70
2021/07/01 04:52:57;;;;;;;15.60;11.40;;;;;;;24.78;65.88;93625.03;5088332;28;20051;-70
2021/07/01 04:55:23;;;;;;;20.73;10.63;;;;;;;24.89;65.07;93627.59;5088066;28;20028;-70
2021/07/01 04:57:48;;;;;;;24.38;10.60;;;;;;;24.99;62.52;93632.94;5089367;28;20106;-70
2021/07/01 05:00:14;;;;;;;26.27;12.02;;;;;;;25.11;63.85;93633.53;5088009;28;20047;-70
2021/07/01 05:02:39;;;;;;;31.00;12.32;;;;;;;25.21;63.30;93630.69;5087980;28;20119;-71
2021/07/01 05:05:05;;;;;;;23.73;12.38;;;;;;;25.17;63.08;93646.28;5088099;28;20485;-71
2021/07/01 05:07:30;;;;;;;21.02;11.65;;;;;;;25.23;63.96;93641.19;5089271;28;20068;-70
2021/07/01 05:09:56;;;;;;;26.13;12.52;;;;;;;25.22;63.95;93645.88;5088356;28;20081;-70
2021/07/01 05:12:21;;;;;;;28.95;12.25;;;;;;;25.26;64.17;93631.41;5089411;28;20032;-71
2021/07/01 05:14:47;;;;;;;23.05;12.95;;;;;;;25.35;63.08;93640.63;5094012;28;20058;-70
2021/07/01 05:17:12;;;;;;;25.45;11.82;;;;;;;25.42;63.30;93637.78;5092713;28;20024;-70
2021/07/01 05:19:37;;;;;;;26.15;12.57;;;;;;;25.45;63.15;93638.16;5091934;28;20036;-70
2021/07/01 05:22:03;;;;;;;30.58;12.63;;;;;;;25.49;62.49;93633.41;5092980;28;20097;-72
2021/07/01 05:24:28;;;;;;;21.67;11.70;;;;;;;25.48;61.64;93640.03;5093061;28;20510;-71
2021/07/01 05:26:54;;;;;;;21.52;11.43;;;;;;;25.48;61.40;93634.59;5092161;28;20408;-70
2021/07/01 05:29:19;;;;;;;24.33;12.40;;;;;;;25.47;62.01;93633.81;5091945;28;20398;-70
2021/07/01 05:31:45;;;;;;;25.85;13.52;;;;;;;25.46;62.65;93626.81;5091710;28;20031;-70
2021/07/01 05:34:11;;;;;;;22.98;13.00;;;;;;;25.54;63.09;93630.19;5091665;28;20035;-71
2021/07/01 05:36:37;;;;;;;29.33;12.55;;;;;;;25.52;63.11;93622.41;5093339;28;20030;-70
2021/07/01 05:39:04;;;;;;;27.10;12.90;;;;;;;25.58;61.70;93622.72;5091922;28;20115;-71
2021/07/01 05:41:30;;;;;;;23.08;13.32;;;;;;;25.64;62.26;93631.97;5091575;28;20490;-70
2021/07/01 05:43:57;;;;;;;28.95;12.90;;;;;;;25.65;62.47;93625.34;5091551;28;20048;-70
2021/07/01 05:46:22;;;;;;;22.30;12.75;;;;;;;25.71;62.18;93615.50;5091546;28;20036;-70
2021/07/01 05:48:48;;;;;;;26.67;12.88;;;;;;;25.77;62.03;93611.09;5091615;28;20032;-70
2021/07/01 05:51:15;;;;;;;18.05;11.93;;;;;;;25.77;61.68;93613.84;5091769;28;20046;-71
2021/07/01 05:56:08;;;;;;;25.63;12.57;;;;;;;25.78;60.98;93601.72;5093029;28;20028;-70
2021/07/01 05:58:34;;;;;;;27.25;11.05;;;;;;;25.74;59.20;93608.44;5091099;28;20027;-71
2021/07/01 06:00:59;;;;;;;21.30;11.80;;;;;;;25.75;60.58;93604.53;5091163;28;20118;-70
2021/07/01 06:03:25;;;;;;;29.15;12.63;;;;;;;25.83;61.04;93606.72;5090955;28;20055;-71
2021/07/01 06:06:01;;;;;;;26.33;12.02;;;;;;;25.92;60.03;93614.38;5092153;28;20460;-71
2021/07/01 06:08:31;;;;;;;18.45;11.18;;;;;;;25.98;59.95;93617.41;5088745;28;20030;-71
2021/07/01 06:11:01;;;;;;;26.33;11.93;;;;;;;26.01;59.30;93624.75;5090418;28;20449;-71
2021/07/01 06:13:29;;;;;;;24.52;12.57;;;;;;;26.07;59.40;93631.28;5091914;28;20028;-71
2021/07/01 06:15:57;;;;;;;25.75;12.50;;;;;;;26.16;58.86;93630.75;5090916;28;20024;-71
2021/07/01 06:18:23;;;;;;;25.50;12.15;;;;;;;26.16;58.50;93633.47;5091940;28;20092;-73
2021/07/01 06:20:50;;;;;;;25.92;12.30;;;;;;;26.17;57.27;93630.31;5090765;28;20103;-72
2021/07/01 06:23:16;;;;;;;21.67;11.25;;;;;;;26.21;56.98;93630.25;5091433;28;20131;-72
2021/07/01 06:25:44;;;;;;;23.88;10.57;;;;;;;26.30;55.37;93626.97;5090608;28;20116;-72
2021/07/01 06:28:13;;;;;;;13.95;8.60;;;;;;;26.37;53.60;93632.28;5090488;28;20020;-72
2021/07/01 06:30:40;;;;;;;22.95;9.05;;;;;;;26.50;52.51;93635.97;5091963;28;20032;-72
2021/07/01 06:33:05;;;;;;;18.15;8.98;;;;;;;26.36;52.43;93626.06;5090468;28;20111;-73
2021/07/01 06:35:31;;;;;;;19.63;9.95;;;;;;;26.46;52.24;93627.06;5092256;28;20111;-72
2021/07/01 06:38:01;;;;;;;27.05;9.93;;;;;;;26.55;52.07;93629.97;5092491;28;20039;-72
2021/07/01 06:40:31;;;;;;;19.92;9.50;;;;;;;26.65;52.35;93630.22;5092088;28;20031;-71
2021/07/01 06:43:01;;;;;;;18.42;8.38;;;;;;;26.72;51.78;93622.63;5090978;28;20036;-72
2021/07/01 06:45:26;;;;;;;24.60;9.27;;;;;;;26.79;50.27;93625.22;5092620;28;20024;-71
2021/07/01 06:47:55;;;;;;;22.67;10.00;;;;;;;26.81;51.00;93619.34;5091057;28;20039;-72
2021/07/01 06:50:28;;;;;;;18.15;10.43;;;;;;;26.89;52.14;93618.00;5090021;28;20032;-73
2021/07/01 06:52:55;;;;;;;28.83;9.27;;;;;;;27.00;52.61;93625.97;5090478;28;20119;-71
2021/07/01 06:55:22;;;;;;;27.77;12.93;;;;;;;27.07;52.26;93623.09;5091305;28;20111;-72
2021/07/01 06:57:48;;;;;;;24.85;13.27;;;;;;;27.14;52.02;93619.41;5091615;28;20070;-72
2021/07/01 07:00:16;;;;;;;25.48;11.95;;;;;;;27.19;51.85;93618.91;5091274;28;20020;-72
2021/07/01 07:02:42;;;;;;;23.35;12.45;;;;;;;27.26;52.36;93615.28;5091456;28;21476;-72
2021/07/01 07:05:10;;;;;;;25.77;11.80;;;;;;;27.32;52.26;93611.59;5090162;28;20483;-72
2021/07/01 07:07:35;;;;;;;23.13;11.65;;;;;;;27.41;52.05;93598.09;5091152;28;20085;-72
2021/07/01 07:10:04;;;;;;;20.27;12.68;;;;;;;27.56;51.07;93605.94;5090351;28;20044;-72
2021/07/01 07:12:32;;;;;;;31.40;11.95;;;;;;;27.65;50.70;93599.91;5091130;28;20072;-80
2021/07/01 07:14:59;;;;;;;24.73;11.70;;;;;;;27.65;50.08;93602.63;5090072;28;20040;-72
2021/07/01 07:17:29;;;;;;;29.65;12.75;;;;;;;27.63;50.42;93608.53;5090973;28;20023;-71
2021/07/01 07:20:00;;;;;;;21.98;12.75;;;;;;;27.60;50.15;93603.94;5091391;28;20051;-70
2021/07/01 07:22:33;;;;;;;34.47;12.85;;;;;;;27.60;50.30;93590.25;5089833;28;20016;-69
2021/07/01 07:25:05;;;;;;;23.38;10.82;;;;;;;27.61;50.67;93595.25;5084744;28;20024;-70
2021/07/01 07:27:31;;;;;;;24.02;11.45;;;;;;;27.68;51.47;93599.81;5091302;28;20020;-70
2021/07/01 07:29:57;;;;;;;30.95;11.27;;;;;;;27.69;50.09;93590.38;5091433;28;20027;-69
2021/07/01 07:32:25;;;;;;;24.13;11.55;;;;;;;27.70;49.46;93589.19;5090142;28;20019;-70
2021/07/01 07:34:50;;;;;;;28.40;11.02;;;;;;;27.73;49.80;93591.06;5090385;28;20101;-70
2021/07/01 09:36:02;;;;;;;25.80;7.50;;;;;;;31.49;33.23;93518.91;5075906;27;20853;-69
2021/07/01 09:38:28;;;;;;;26.58;7.15;;;;;;;31.54;33.38;93523.81;5069397;28;20055;-69
2021/07/01 09:40:53;;;;;;;30.70;7.25;;;;;;;31.63;32.85;93512.06;5085738;28;20028;-69
2021/07/01 09:43:22;;;;;;;18.35;6.38;;;;;;;31.69;33.13;93508.25;5084779;28;20070;-69
2021/07/01 09:45:50;;;;;;;21.50;6.63;;;;;;;31.67;31.30;93509.91;5086429;28;20021;-69
2021/07/01 09:48:18;;;;;;;25.27;7.15;;;;;;;31.82;32.10;93505.34;5077942;28;20477;-69
2021/07/01 09:50:46;;;;;;;27.05;6.88;;;;;;;31.99;31.22;93503.03;5087732;28;20487;-69
2021/07/01 09:53:39;;;;;;;20.05;5.72;;;;;;;32.13;30.88;93507.19;5077955;28;20024;-70
2021/07/01 09:56:06;;;;;;;19.27;6.95;;;;;;;31.88;29.68;93497.25;5077735;28;20047;-70
2021/07/01 09:58:36;;;;;;;42.45;7.65;;;;;;;31.92;31.70;93500.59;5073318;28;20499;-69
2021/07/01 10:01:01;;;;;;;50.10;7.10;;;;;;;32.08;32.49;93492.06;5077337;28;20032;-70
2021/07/01 10:03:27;;;;;;;24.42;6.93;;;;;;;32.22;32.28;93498.94;5065898;28;20559;-69
2021/07/01 10:05:52;;;;;;;32.63;7.72;;;;;;;32.33;31.74;93487.41;5073106;28;20569;-70
2021/07/01 10:08:18;;;;;;;28.83;6.60;;;;;;;32.45;31.76;93480.94;5080220;28;20024;-70
2021/07/01 10:10:51;;;;;;;29.85;8.13;;;;;;;32.58;30.99;93478.03;5074732;28;20023;-69
2021/07/01 10:13:19;;;;;;;20.45;6.45;;;;;;;32.69;30.35;93481.06;5075691;28;20036;-69
2021/07/01 10:15:46;;;;;;;26.00;7.05;;;;;;;32.77;30.42;93476.75;5068847;28;20138;-69
2021/07/01 10:18:17;;;;;;;23.13;7.55;;;;;;;32.74;29.51;93474.16;5066547;28;20032;-70
2021/07/01 10:20:48;;;;;;;34.60;6.80;;;;;;;32.80;30.40;93469.53;5065632;28;20135;-70
2021/07/01 10:23:33;;;;;;;31.53;7.73;;;;;;;32.61;29.13;93466.06;5079450;28;20085;-70
2021/07/01 10:26:21;;;;;;;25.17;7.72;;;;;;;32.46;30.72;93465.91;5076827;28;20032;-69
2021/07/01 10:29:00;;;;;;;34.28;6.95;;;;;;;32.38;30.77;93467.47;5074644;28;20042;-69
2021/07/01 10:31:46;;;;;;;25.40;6.90;;;;;;;32.55;30.21;93459.66;5073094;28;20450;-69
2021/07/01 10:34:13;;;;;;;30.45;7.13;;;;;;;32.66;30.69;93459.91;5072290;28;20056;-69
2021/07/01 10:36:38;;;;;;;23.88;7.35;;;;;;;32.83;30.80;93456.78;5076970;28;20409;-70
2021/07/01 10:39:04;;;;;;;23.70;7.40;;;;;;;32.92;29.46;93454.75;5071735;28;20031;-70
2021/07/01 10:41:33;;;;;;;37.78;7.78;;;;;;;32.80;30.45;93457.72;5072401;28;20024;-71
2021/07/01 10:44:00;;;;;;;24.92;6.93;;;;;;;32.77;30.63;93443.63;5079297;28;20032;-70
2021/07/01 10:46:39;;;;;;;20.77;9.18;;;;;;;32.67;31.42;93444.13;5064832;28;20021;-70
2021/07/01 10:49:05;;;;;;;26.08;7.45;;;;;;;32.52;32.48;93433.72;5063434;28;20037;-70
2021/07/01 10:51:30;;;;;;;25.33;7.80;;;;;;;32.23;33.17;93439.03;5057025;28;20403;-70
2021/07/01 10:54:12;;;;;;;25.23;8.45;;;;;;;31.93;34.30;93434.00;5063321;28;20041;-70
2021/07/01 10:56:42;;;;;;;;;;;;;;;31.90;33.13;93423.91;5057523;28;20548;-70
2021/07/01 10:59:12;;;;;;;22.40;8.23;;;;;;;31.93;32.93;93420.22;5060331;28;20347;-69
2021/07/01 11:01:41;;;;;;;32.67;7.18;;;;;;;31.95;34.00;93428.78;5058142;28;20411;-70
2021/07/01 11:04:18;;;;;;;19.17;7.38;;;;;;;31.86;34.06;93423.28;5060968;28;20059;-70
2021/07/01 11:06:55;;;;;;;22.70;7.03;;;;;;;31.86;34.96;93411.50;5057476;28;20077;-69
2021/07/01 11:09:21;;;;;;;31.63;8.48;;;;;;;31.89;34.15;93411.34;5066839;28;20040;-70
2021/07/01 11:11:47;;;;;;;32.22;7.90;;;;;;;32.09;32.89;93401.84;5060733;28;20036;-70
2021/07/01 11:14:14;;;;;;;33.88;7.68;;;;;;;32.30;33.11;93400.88;5065389;28;20032;-70
2021/07/01 11:16:45;;;;;;;19.48;6.63;;;;;;;32.55;32.45;93396.97;5066831;28;20081;-69
2021/07/01 11:19:15;;;;;;;31.50;7.07;;;;;;;32.83;31.93;93391.34;5061937;28;20020;-69
2021/07/01 11:21:46;;;;;;;19.08;6.75;;;;;;;32.98;30.52;93381.13;5069411;28;20480;-70
2021/07/01 11:24:16;;;;;;;25.58;6.40;;;;;;;33.12;29.64;93384.44;5057290;28;20021;-71
2021/07/01 11:26:47;;;;;;;25.95;5.72;;;;;;;33.23;28.67;93384.66;5065902;28;20047;-71
2021/07/01 11:29:12;;;;;;;31.20;6.07;;;;;;;33.43;29.53;93380.53;5052165;28;20087;-70
2021/07/01 11:31:44;;;;;;;36.90;7.30;;;;;;;33.59;28.69;93377.34;5060621;28;20492;-70
2021/07/01 11:34:20;;;;;;;20.23;5.88;;;;;;;33.72;30.63;93375.06;5057263;28;20071;-70
2021/07/01 11:36:51;;;;;;;25.15;6.80;;;;;;;33.92;29.34;93373.69;5060732;28;20097;-70
2021/07/01 11:39:23;;;;;;;26.77;6.43;;;;;;;34.00;26.77;93361.00;5066158;28;20097;-70
2021/07/01 11:41:49;;;;;;;32.97;7.13;;;;;;;34.27;27.82;93357.19;5053029;28;20074;-70
2021/07/01 11:44:14;;;;;;;27.88;6.65;;;;;;;34.44;28.18;93349.16;5062297;28;20016;-71
2021/07/01 11:46:44;;;;;;;23.80;6.20;;;;;;;34.66;27.42;93348.75;5058326;28;20506;-71
2021/07/01 11:49:11;;;;;;;25.48;6.75;;;;;;;34.74;26.63;93346.34;5062577;28;20380;-70
2021/07/01 11:51:37;;;;;;;32.97;6.85;;;;;;;34.78;26.70;93337.84;5066527;28;20380;-70
2021/07/01 11:54:04;;;;;;;25.67;7.47;;;;;;;34.80;26.17;93341.63;5056098;28;20033;-71
2021/07/01 11:56:29;;;;;;;31.58;6.20;;;;;;;34.87;26.49;93334.94;5060167;28;20028;-71
2021/07/01 11:58:55;;;;;;;28.90;6.93;;;;;;;34.91;25.52;93316.88;5062370;28;20399;-71
2021/07/01 12:01:21;;;;;;;30.73;6.55;;;;;;;35.00;25.31;93315.97;5057229;28;20544;-71
2021/07/01 12:03:51;;;;;;;35.30;8.40;;;;;;;35.11;26.49;93304.25;5060106;28;20036;-71
2021/07/01 12:06:43;;;;;;;24.23;6.03;;;;;;;35.24;26.51;93288.09;5060147;28;20021;-70
2021/07/01 12:09:13;;;;;;;25.20;6.05;;;;;;;35.32;26.83;93286.41;5056945;28;20021;-70
2021/07/01 12:12:00;;;;;;;31.85;7.63;;;;;;;35.51;26.17;93292.41;5061865;28;20032;-71
2021/07/01 12:14:34;;;;;;;25.60;6.80;;;;;;;35.76;25.90;93295.69;5065080;28;20044;-71
2021/07/01 12:17:00;;;;;;;22.08;6.60;;;;;;;35.93;25.07;93293.06;5071366;28;20119;-71
2021/07/01 12:19:47;;;;;;;21.92;5.78;;;;;;;36.17;26.02;93294.78;5058721;28;20496;-70
2021/07/01 12:22:40;;;;;;;28.75;6.30;;;;;;;36.35;24.24;93291.63;5054961;28;20409;-71
2021/07/01 12:25:13;;;;;;;19.63;4.88;;;;;;;36.27;24.41;93293.34;5065124;28;20027;-70
2021/07/01 12:27:39;;;;;;;24.50;6.10;;;;;;;36.27;24.96;93293.34;5058531;28;20543;-69
2021/07/01 12:30:05;;;;;;;31.40;6.28;;;;;;;36.47;24.59;93281.38;5065448;28;20108;-70
2021/07/01 12:32:30;;;;;;;19.77;6.07;;;;;;;36.63;24.11;93266.09;5062333;28;20083;-70
2021/07/01 12:34:55;;;;;;;23.75;5.85;;;;;;;36.73;23.08;93264.63;5061222;28;20044;-70
2021/07/01 12:37:21;;;;;;;28.90;6.68;;;;;;;36.79;23.61;93268.19;5051926;28;20036;-70
2021/07/01 12:39:48;;;;;;;24.90;6.05;;;;;;;36.85;23.40;93268.22;5058863;28;20377;-70
2021/07/01 12:42:21;;;;;;;30.98;5.57;;;;;;;37.00;23.44;93256.91;5059367;28;20025;-69
2021/07/01 12:44:47;;;;;;;28.50;5.90;;;;;;;37.10;23.09;93249.88;5065675;28;20017;-69
2021/07/01 12:47:24;;;;;;;28.52;7.75;;;;;;;37.14;23.91;93239.31;5063247;28;20047;-70
2021/07/01 12:49:53;;;;;;;24.65;5.85;;;;;;;37.25;23.56;93238.59;5050880;28;20582;-71
2021/07/01 12:52:21;;;;;;;25.98;6.97;;;;;;;37.44;22.75;93233.34;5061508;28;20411;-70
2021/07/01 12:54:46;;;;;;;29.58;7.30;;;;;;;37.72;21.66;93230.59;5064798;28;20127;-69
2021/07/01 12:57:13;;;;;;;27.55;6.05;;;;;;;38.02;21.02;93219.69;5062805;28;20509;-70
2021/07/01 12:59:46;;;;;;;27.55;7.32;;;;;;;38.39;17.14;93213.13;5060307;28;20039;-71
2021/07/01 13:02:21;;;;;;;23.85;4.43;;;;;;;38.57;17.68;93228.50;5055983;28;20056;-70
2021/07/01 13:04:52;;;;;;;24.63;5.93;;;;;;;38.85;14.59;93219.31;5066252;28;20083;-70
2021/07/01 13:07:20;;;;;;;27.15;3.65;;;;;;;38.81;14.12;93232.75;5060717;28;20392;-69
2021/07/01 13:09:47;;;;;;;19.60;4.53;;;;;;;38.26;14.22;93229.56;5051019;28;20482;-70
2021/07/01 13:12:31;;;;;;;26.23;4.47;;;;;;;37.79;13.47;93221.00;5052990;28;20051;-69
2021/07/01 13:14:58;;;;;;;31.77;5.75;;;;;;;37.68;19.39;93225.28;5054246;28;20041;-70
2021/07/01 13:17:24;;;;;;;28.35;6.22;;;;;;;37.21;20.44;93222.19;5062211;28;20035;-69
2021/07/01 13:19:56;;;;;;;32.80;6.22;;;;;;;37.01;21.20;93214.00;5070100;28;20024;-69
2021/07/01 13:22:27;;;;;;;28.65;5.55;;;;;;;37.47;22.22;93204.50;5065987;28;20487;-70